Time;durP1;ratioP1;P1;durP2;ratioP2;P2;SDS_P1;SDS_P2;PMS_P1;PMS_P2;Temp;Humidity;BMP_temperature;BMP_pressure;BME280_temperature;BME280_humidity;BME280_pressure;Samples;Min_cycle;Max_cycle;Signal;HPM_P1;HPM_P2
2021/07/10 00:02:14;;;;;;;22.27;14.57;;;;;;;16.37;87.79;101637.41;10108177;28;20058;-69
2021/07/10 00:07:10;;;;;;;24.38;14.93;;;;;;;16.29;87.75;101646.53;10100829;28;20042;-70
2021/07/10 00:12:07;;;;;;;22.98;14.90;;;;;;;16.22;87.73;101646.25;10101576;28;20458;-69
2021/07/10 00:17:03;;;;;;;22.45;15.23;;;;;;;16.20;87.72;101636.38;10105168;28;20113;-70
2021/07/10 00:22:00;;;;;;;22.05;16.55;;;;;;;16.28;87.36;101631.13;10111557;28;20098;-73
2021/07/10 00:27:00;;;;;;;23.10;16.15;;;;;;;16.28;87.11;101629.19;10118472;28;20062;-73
2021/07/10 00:31:56;;;;;;;22.13;15.52;;;;;;;16.23;86.98;101626.63;10110962;28;20070;-73
2021/07/10 00:36:53;;;;;;;21.08;14.88;;;;;;;16.24;86.83;101616.38;10103831;28;20145;-73
2021/07/10 00:41:49;;;;;;;20.65;14.80;;;;;;;16.16;86.61;101618.06;10105710;28;20043;-73
2021/07/10 00:46:46;;;;;;;20.48;13.70;;;;;;;16.13;87.17;101610.44;10108083;28;20580;-73
2021/07/10 00:51:42;;;;;;;18.33;13.77;;;;;;;16.09;86.52;101604.78;10098763;28;20050;-72
2021/07/10 00:56:41;;;;;;;20.85;15.02;;;;;;;16.12;86.53;101593.06;10110032;28;20051;-71
2021/07/10 01:01:38;;;;;;;24.88;13.85;;;;;;;16.07;86.65;101590.53;10111250;28;20105;-72
2021/07/10 01:06:34;;;;;;;19.92;13.50;;;;;;;16.13;86.42;101582.84;10112781;28;20058;-72
2021/07/10 01:11:31;;;;;;;17.02;13.25;;;;;;;16.06;86.52;101583.41;10109439;28;20094;-71
2021/07/10 01:16:28;;;;;;;19.05;13.63;;;;;;;16.06;86.25;101575.13;10120722;28;20042;-71
2021/07/10 01:21:25;;;;;;;18.88;13.60;;;;;;;16.02;85.92;101571.41;10101659;28;20098;-70
2021/07/10 01:26:22;;;;;;;21.83;13.35;;;;;;;15.99;85.94;101566.56;10102760;28;20138;-70
2021/07/10 01:31:19;;;;;;;19.80;13.40;;;;;;;15.88;86.12;101559.81;10108317;28;20660;-69
2021/07/10 01:36:16;;;;;;;18.83;13.30;;;;;;;15.92;86.27;101566.25;10088534;28;20053;-69
2021/07/10 01:41:15;;;;;;;20.13;13.52;;;;;;;15.92;85.98;101555.22;10111625;28;20043;-69
2021/07/10 01:46:12;;;;;;;18.35;13.20;;;;;;;15.80;85.89;101557.91;10115134;28;20050;-69
2021/07/10 01:51:09;;;;;;;21.67;14.55;;;;;;;15.77;86.13;101554.66;10113418;28;20475;-69
2021/07/10 01:56:05;;;;;;;20.50;14.68;;;;;;;15.71;86.36;101550.50;10104745;28;20077;-69
2021/07/10 02:01:02;;;;;;;21.02;14.93;;;;;;;15.69;86.59;101541.72;10100085;28;20117;-69
2021/07/10 02:05:58;;;;;;;24.70;15.27;;;;;;;15.73;86.31;101539.97;10101994;28;20047;-70
2021/07/10 02:10:55;;;;;;;18.10;13.50;;;;;;;15.76;86.07;101536.53;10101172;28;20047;-70
2021/07/10 02:15:51;;;;;;;21.10;13.75;;;;;;;15.80;85.90;101535.84;10101434;28;20461;-70
2021/07/10 02:20:47;;;;;;;19.10;14.18;;;;;;;15.78;85.75;101534.25;10107601;28;20410;-70
2021/07/10 02:25:44;;;;;;;18.80;14.75;;;;;;;15.74;85.61;101522.25;10105704;28;20089;-70
2021/07/10 02:30:42;;;;;;;19.90;14.32;;;;;;;15.71;85.75;101533.97;10103195;28;20406;-70
2021/07/10 02:35:38;;;;;;;21.67;14.57;;;;;;;15.73;85.71;101528.94;10112224;28;20086;-69
2021/07/10 02:40:35;;;;;;;23.58;15.10;;;;;;;15.74;85.44;101522.25;10108778;28;20087;-70
2021/07/10 02:45:32;;;;;;;24.95;15.43;;;;;;;15.67;85.81;101527.47;10117290;28;20038;-69
2021/07/10 02:50:28;;;;;;;21.85;13.88;;;;;;;15.69;85.84;101530.69;10108438;28;20065;-69
2021/07/10 02:55:25;;;;;;;19.38;14.77;;;;;;;15.56;86.07;101520.72;10109872;28;20107;-69
2021/07/10 03:00:24;;;;;;;21.00;14.45;;;;;;;15.64;85.86;101533.66;10115654;28;20473;-69
2021/07/10 03:05:21;;;;;;;17.98;12.55;;;;;;;15.64;85.63;101528.13;10109801;28;20054;-70
2021/07/10 03:10:21;;;;;;;19.15;13.55;;;;;;;15.62;85.84;101524.91;10109510;28;20042;-69
2021/07/10 03:15:18;;;;;;;17.95;13.30;;;;;;;15.61;85.92;101523.28;10112227;28;20117;-68
2021/07/10 03:20:17;;;;;;;20.70;13.18;;;;;;;15.62;85.74;101524.91;10105421;28;20101;-70
2021/07/10 03:25:14;;;;;;;17.70;11.77;;;;;;;15.65;85.66;101518.72;10106499;28;20837;-68
2021/07/10 03:30:13;;;;;;;17.27;12.10;;;;;;;15.50;85.70;101511.84;10099180;28;20097;-69
2021/07/10 03:35:12;;;;;;;17.35;11.30;;;;;;;15.62;85.59;101519.38;10099186;28;20065;-68
2021/07/10 03:40:14;;;;;;;15.37;10.57;;;;;;;15.51;85.74;101515.38;10108774;28;20058;-71
2021/07/10 03:45:12;;;;;;;18.42;12.70;;;;;;;15.54;85.60;101511.97;10099936;28;20070;-69
2021/07/10 03:50:16;;;;;;;19.20;10.35;;;;;;;15.55;85.56;101524.63;10111826;28;20060;-69
2021/07/10 03:55:15;;;;;;;16.48;10.95;;;;;;;15.58;85.19;101529.47;10108833;28;20117;-73
2021/07/10 04:00:15;;;;;;;13.48;10.25;;;;;;;15.65;85.19;101540.78;10110520;28;20098;-70
2021/07/10 04:05:12;;;;;;;15.90;9.82;;;;;;;15.64;84.71;101533.66;10107562;28;20134;-70
2021/07/10 04:10:10;;;;;;;15.95;10.05;;;;;;;15.59;84.97;101536.56;10111872;28;20097;-69
2021/07/10 04:15:08;;;;;;;14.25;9.35;;;;;;;15.62;84.69;101538.69;10109925;28;20391;-69
2021/07/10 04:20:06;;;;;;;19.58;11.07;;;;;;;15.63;84.40;101537.53;10111494;28;20047;-68
2021/07/10 04:25:05;;;;;;;13.90;9.68;;;;;;;15.69;84.18;101530.69;10107524;28;20070;-67
2021/07/10 04:30:05;;;;;;;17.45;10.13;;;;;;;15.70;83.70;101529.56;10101610;28;20043;-67
2021/07/10 04:35:01;;;;;;;14.88;10.13;;;;;;;15.73;83.50;101533.63;10106743;28;20094;-68
2021/07/10 04:39:58;;;;;;;17.38;10.20;;;;;;;15.66;84.03;101531.34;10105799;28;20055;-68
2021/07/10 04:44:58;;;;;;;13.20;8.77;;;;;;;15.73;83.69;101534.44;10103858;28;20130;-69
2021/07/10 04:49:55;;;;;;;15.90;10.00;;;;;;;15.75;83.55;101540.41;10096157;28;20043;-69
2021/07/10 04:54:51;;;;;;;13.05;9.23;;;;;;;15.81;83.53;101538.28;10102925;28;20079;-69
2021/07/10 04:59:48;;;;;;;15.18;10.43;;;;;;;15.87;83.19;101547.16;10106976;28;20118;-69
2021/07/10 05:04:48;;;;;;;14.85;9.73;;;;;;;15.74;83.26;101541.56;10106264;28;20047;-70
2021/07/10 05:09:45;;;;;;;13.88;8.93;;;;;;;15.77;82.95;101540.88;10106627;28;20034;-70
2021/07/10 05:14:42;;;;;;;12.98;9.07;;;;;;;15.82;83.19;101533.56;10099869;28;20130;-73
2021/07/10 05:19:38;;;;;;;17.20;9.55;;;;;;;15.79;82.50;101529.53;10108910;28;20051;-70
2021/07/10 05:24:35;;;;;;;12.18;8.75;;;;;;;15.90;82.47;101535.47;10103246;28;20047;-70
2021/07/10 05:29:32;;;;;;;11.60;9.10;;;;;;;15.87;82.49;101525.09;10107296;28;20098;-71
2021/07/10 05:34:28;;;;;;;10.95;8.25;;;;;;;15.92;82.29;101533.16;10101021;28;20145;-71
2021/07/10 05:39:25;;;;;;;14.48;9.02;;;;;;;16.01;82.46;101530.38;10102185;28;20039;-70
2021/07/10 05:44:21;;;;;;;15.40;9.40;;;;;;;15.88;82.35;101543.28;10102665;28;20101;-70
2021/07/10 05:49:19;;;;;;;11.13;8.10;;;;;;;16.05;82.02;101537.63;10103612;28;20502;-70
2021/07/10 05:54:15;;;;;;;11.52;8.38;;;;;;;16.16;81.62;101536.09;10108999;28;20047;-70
2021/07/10 05:59:14;;;;;;;13.10;8.75;;;;;;;16.15;81.96;101537.25;10099476;28;20098;-69
2021/07/10 06:04:10;;;;;;;12.52;7.78;;;;;;;16.18;81.64;101536.56;10109150;28;20473;-69
2021/07/10 06:09:07;;;;;;;12.80;8.25;;;;;;;16.23;81.03;101545.81;10110463;28;20120;-70
2021/07/10 06:14:08;;;;;;;10.32;7.93;;;;;;;16.34;80.72;101544.25;10095936;28;20100;-70
2021/07/10 06:19:04;;;;;;;8.93;7.45;;;;;;;16.42;80.71;101540.59;10106316;28;20059;-68
2021/07/10 06:24:01;;;;;;;10.18;6.93;;;;;;;16.57;80.54;101542.75;10100004;28;20162;-70
2021/07/10 06:28:57;;;;;;;13.57;8.02;;;;;;;16.69;80.34;101538.44;10101112;28;20065;-70
2021/07/10 06:33:54;;;;;;;12.05;6.32;;;;;;;16.75;79.44;101542.56;10107796;28;20054;-70
2021/07/10 06:38:50;;;;;;;11.02;6.85;;;;;;;16.80;79.75;101559.78;10108384;28;20042;-70
2021/07/10 06:43:47;;;;;;;9.80;6.47;;;;;;;16.99;79.16;101559.28;10104928;28;20042;-70
2021/07/10 06:48:43;;;;;;;10.45;6.72;;;;;;;17.04;78.62;101556.28;10111449;28;20257;-69
2021/07/10 06:53:40;;;;;;;9.10;5.82;;;;;;;16.94;78.10;101562.25;10111812;28;20035;-69
2021/07/10 06:58:36;;;;;;;10.68;6.38;;;;;;;17.01;77.70;101567.19;10103237;28;20043;-69
2021/07/10 07:03:33;;;;;;;9.30;6.28;;;;;;;17.02;77.82;101558.59;10104462;28;20081;-69
2021/07/10 07:08:29;;;;;;;8.05;5.32;;;;;;;17.15;77.70;101566.88;10110875;28;20447;-69
2021/07/10 07:13:26;;;;;;;10.88;5.45;;;;;;;17.21;77.96;101571.06;10102818;28;20104;-69
2021/07/10 07:18:22;;;;;;;10.57;5.72;;;;;;;17.27;76.85;101574.41;10089292;28;20081;-67
2021/07/10 07:23:33;;;;;;;7.80;5.00;;;;;;;17.21;76.65;101579.34;10099176;28;20039;-67
2021/07/10 07:28:30;;;;;;;10.70;5.47;;;;;;;17.13;77.11;101591.31;10091472;28;20054;-67
2021/07/10 07:33:28;;;;;;;13.52;6.18;;;;;;;17.13;77.27;101588.56;10081219;28;20070;-70
2021/07/10 07:38:30;;;;;;;9.07;5.40;;;;;;;17.20;76.58;101594.31;10085032;28;20046;-69
2021/07/10 07:43:27;;;;;;;8.57;5.63;;;;;;;17.27;76.40;101589.03;10085666;28;20523;-69
2021/07/10 07:48:23;;;;;;;8.70;5.30;;;;;;;17.33;75.22;101581.31;10084974;28;20313;-70
2021/07/10 07:53:20;;;;;;;10.23;4.90;;;;;;;17.38;74.34;101587.47;10102616;28;20529;-69
2021/07/10 07:58:17;;;;;;;9.95;4.97;;;;;;;17.50;73.54;101597.72;10102656;28;20107;-69
2021/07/10 08:03:13;;;;;;;7.88;4.90;;;;;;;17.43;73.39;101595.53;10112039;28;20042;-70
2021/07/10 08:08:10;;;;;;;7.78;4.82;;;;;;;17.62;73.22;101591.41;10102931;28;20038;-70
2021/07/10 08:13:06;;;;;;;6.78;4.35;;;;;;;17.66;73.12;101611.66;10107340;28;20051;-70
2021/07/10 08:18:03;;;;;;;8.02;4.50;;;;;;;17.54;72.46;101606.94;10113611;28;20123;-70
2021/07/10 08:23:00;;;;;;;8.43;4.40;;;;;;;17.54;72.55;101595.06;10106598;28;20519;-70
2021/07/10 08:27:58;;;;;;;8.63;4.15;;;;;;;17.72;72.22;101604.75;10110700;28;20049;-70
2021/07/10 08:32:54;;;;;;;10.95;4.32;;;;;;;17.79;71.76;101606.94;10101531;28;20098;-70
2021/07/10 08:37:51;;;;;;;7.80;4.63;;;;;;;17.93;70.79;101607.44;10103070;28;20514;-69
2021/07/10 08:42:48;;;;;;;8.82;4.72;;;;;;;18.03;70.68;101603.41;10107079;28;20050;-69
2021/07/10 08:47:45;;;;;;;7.53;5.00;;;;;;;18.02;71.62;101604.56;10106624;28;20055;-70
2021/07/10 08:52:42;;;;;;;8.20;5.85;;;;;;;18.11;72.36;101596.94;10116374;28;20046;-72
2021/07/10 08:57:39;;;;;;;10.25;5.75;;;;;;;18.12;71.54;101593.00;10109525;28;20101;-69
2021/07/10 09:02:39;;;;;;;8.23;5.40;;;;;;;18.34;71.39;101594.47;10110063;28;20133;-71
2021/07/10 09:08:09;;;;;;;9.18;5.35;;;;;;;18.38;70.77;101589.88;10111973;28;20082;-69
2021/07/10 09:13:06;;;;;;;9.48;5.50;;;;;;;18.55;69.41;101599.84;10106556;28;20130;-69
2021/07/10 09:18:06;;;;;;;9.80;6.18;;;;;;;18.38;69.27;101594.56;10103752;28;20051;-69
2021/07/10 09:23:42;;;;;;;8.95;6.03;;;;;;;18.56;69.78;101589.56;10107747;28;20039;-69
2021/07/10 09:28:38;;;;;;;9.68;5.90;;;;;;;18.65;69.77;101581.94;10100306;28;20594;-69
2021/07/10 09:33:35;;;;;;;10.88;6.28;;;;;;;18.56;69.03;101579.28;10105478;28;20869;-70
2021/07/10 09:38:34;;;;;;;8.23;5.18;;;;;;;18.51;70.07;101582.31;10098633;28;20051;-70
2021/07/10 09:43:33;;;;;;;6.57;5.00;;;;;;;18.58;69.24;101588.06;10104458;28;20502;-69
2021/07/10 09:48:33;;;;;;;8.75;4.72;;;;;;;18.56;68.19;101584.03;10097822;28;20105;-69
2021/07/10 09:53:31;;;;;;;6.85;4.35;;;;;;;18.82;68.27;101589.97;10108969;28;20039;-69
2021/07/10 09:58:32;;;;;;;7.68;3.42;;;;;;;18.96;66.34;101586.81;10101007;28;20053;-70
2021/07/10 10:03:32;;;;;;;6.82;4.05;;;;;;;19.01;65.73;101594.84;10105372;28;20074;-69
2021/07/10 10:08:34;;;;;;;8.02;3.90;;;;;;;19.27;65.48;101585.25;10103627;28;20047;-68
2021/07/10 10:13:30;;;;;;;7.88;3.95;;;;;;;19.60;64.19;101592.41;10100415;28;20142;-68
2021/07/10 10:18:27;;;;;;;5.90;4.10;;;;;;;19.96;63.24;101581.03;10090598;28;20066;-69
2021/07/10 10:23:23;;;;;;;8.77;4.35;;;;;;;21.00;60.99;101585.19;10100802;28;20043;-70
2021/07/10 10:28:20;;;;;;;4.75;3.42;;;;;;;22.14;57.84;101585.50;10102617;28;20055;-70
2021/07/10 10:33:17;;;;;;;8.32;3.80;;;;;;;22.03;55.85;101580.59;10103383;28;20093;-68
2021/07/10 10:38:15;;;;;;;6.65;3.10;;;;;;;22.64;52.33;101580.63;10102749;28;20039;-69
2021/07/10 10:43:15;;;;;;;4.82;2.67;;;;;;;23.87;48.52;101577.84;10102052;28;20109;-69
2021/07/10 10:48:15;;;;;;;5.43;2.92;;;;;;;24.14;47.96;101582.03;10107139;28;20497;-70
2021/07/10 10:53:21;;;;;;;5.97;3.42;;;;;;;22.63;50.42;101579.03;10115192;28;20050;-69
2021/07/10 10:58:29;;;;;;;5.78;2.70;;;;;;;21.73;53.47;101588.88;10102552;28;20053;-70
2021/07/10 11:03:35;;;;;;;5.47;3.25;;;;;;;21.30;53.79;101588.13;10108938;28;20093;-69
2021/07/10 11:08:36;;;;;;;10.13;3.17;;;;;;;22.96;48.55;101586.56;10112175;28;20747;-69
2021/07/10 11:13:34;;;;;;;3.83;2.22;;;;;;;23.77;45.65;101584.97;10107461;28;20118;-70
2021/07/10 11:18:54;;;;;;;5.13;3.08;;;;;;;23.35;45.98;101588.97;10125541;28;20061;-69
2021/07/10 11:23:51;;;;;;;5.93;2.25;;;;;;;24.17;45.04;101579.63;10112921;28;20039;-70
2021/07/10 11:28:47;;;;;;;4.47;2.33;;;;;;;23.29;46.50;101582.16;10112285;28;20043;-70
2021/07/10 11:33:57;;;;;;;4.40;2.22;;;;;;;24.10;45.05;101570.00;10104470;28;20097;-69
2021/07/10 11:38:54;;;;;;;3.50;2.20;;;;;;;22.72;45.22;101582.34;10112990;28;20039;-69
2021/07/10 11:44:16;;;;;;;4.32;2.42;;;;;;;21.94;48.55;101582.84;10104569;28;20081;-69
2021/07/10 11:49:39;;;;;;;5.70;2.83;;;;;;;21.68;50.65;101582.84;10118235;28;20053;-69
2021/07/10 11:54:37;;;;;;;4.63;2.78;;;;;;;21.14;52.33;101585.47;10114750;28;20093;-69
2021/07/10 11:59:35;;;;;;;5.03;2.85;;;;;;;21.29;52.05;101580.16;10109059;28;20078;-69
2021/07/10 12:04:31;;;;;;;4.45;2.78;;;;;;;21.18;52.40;101583.53;10113762;28;20046;-70
2021/07/10 12:09:28;;;;;;;5.30;2.90;;;;;;;21.12;52.71;101587.81;10106580;28;20058;-70
2021/07/10 12:14:24;;;;;;;4.63;2.80;;;;;;;21.96;51.92;101579.69;10113113;28;20050;-70
2021/07/10 12:19:23;;;;;;;4.15;2.90;;;;;;;21.87;51.30;101585.53;10116656;28;20050;-70
2021/07/10 12:24:20;;;;;;;4.00;2.40;;;;;;;22.27;50.29;101573.00;10108229;28;20046;-70
2021/07/10 12:29:17;;;;;;;4.57;2.50;;;;;;;22.56;47.88;101568.59;10101038;28;20074;-69
2021/07/10 12:34:16;;;;;;;3.92;2.17;;;;;;;22.46;48.33;101570.06;10101459;28;20491;-70
2021/07/10 12:39:39;;;;;;;6.10;2.85;;;;;;;22.06;49.26;101562.34;10104958;28;20078;-69
2021/07/10 12:44:38;;;;;;;5.50;2.97;;;;;;;22.11;49.02;101566.78;10097805;28;20046;-71
2021/07/10 12:49:47;;;;;;;5.35;2.63;;;;;;;22.12;49.18;101565.56;10091062;28;20077;-69
2021/07/10 12:54:51;;;;;;;5.35;2.30;;;;;;;21.85;49.07;101552.47;10102293;28;20045;-70
2021/07/10 13:00:11;;;;;;;4.18;2.70;;;;;;;22.13;50.70;101548.50;10100786;28;20055;-68
2021/07/10 13:05:32;;;;;;;4.97;2.47;;;;;;;22.23;48.76;101549.84;10096375;28;20081;-68
2021/07/10 13:10:32;;;;;;;5.95;2.42;;;;;;;22.20;50.82;101550.59;10099596;28;20062;-70
2021/07/10 13:15:30;;;;;;;5.65;2.53;;;;;;;22.38;47.83;101551.66;10105844;28;20047;-68
2021/07/10 13:20:29;;;;;;;3.88;1.90;;;;;;;22.48;46.54;101550.19;10102448;28;20534;-70
2021/07/10 13:25:39;;;;;;;3.97;2.28;;;;;;;22.64;46.25;101547.97;10102025;28;20067;-69
2021/07/10 13:30:35;;;;;;;4.47;2.38;;;;;;;22.48;46.50;101545.41;10107469;28;20439;-70
2021/07/10 13:35:32;;;;;;;4.25;2.20;;;;;;;22.67;46.81;101543.63;10100035;28;20479;-70
2021/07/10 13:40:28;;;;;;;4.90;2.60;;;;;;;22.59;47.88;101545.53;10100718;28;20070;-69
2021/07/10 13:45:25;;;;;;;4.00;2.50;;;;;;;22.37;48.87;101533.34;10103761;28;20082;-69
2021/07/10 13:50:22;;;;;;;6.18;2.67;;;;;;;22.39;49.32;101542.09;10115932;28;20752;-71
2021/07/10 13:55:23;;;;;;;4.70;2.92;;;;;;;22.74;47.63;101540.13;10107547;28;20098;-71
2021/07/10 14:00:29;;;;;;;5.00;2.60;;;;;;;22.54;47.04;101536.72;10098271;28;20086;-71
2021/07/10 14:05:26;;;;;;;5.63;2.50;;;;;;;22.48;46.62;101528.69;10099206;28;20419;-70
2021/07/10 14:10:26;;;;;;;6.95;3.35;;;;;;;22.30;47.31;101532.44;10109389;28;20054;-70
2021/07/10 14:15:25;;;;;;;5.82;2.88;;;;;;;22.27;47.76;101529.22;10115933;28;20133;-70
2021/07/10 14:20:22;;;;;;;4.70;2.85;;;;;;;22.35;48.17;101520.94;10105440;28;20055;-70
2021/07/10 14:25:26;;;;;;;5.53;2.70;;;;;;;22.32;48.53;101516.94;10107332;28;20121;-70
2021/07/10 14:30:27;;;;;;;4.72;2.70;;;;;;;22.90;46.71;101527.53;10093472;28;20043;-70
2021/07/10 14:35:25;;;;;;;4.55;2.75;;;;;;;23.36;45.02;101514.44;10087589;28;20085;-71
2021/07/10 14:40:24;;;;;;;6.07;3.65;;;;;;;23.19;44.02;101522.28;10109408;28;20054;-70
2021/07/10 14:45:22;;;;;;;4.93;2.90;;;;;;;22.73;46.86;101517.03;10107334;28;20043;-70
2021/07/10 14:50:18;;;;;;;6.28;3.75;;;;;;;22.77;46.63;101509.50;10112703;28;20093;-71
2021/07/10 14:55:17;;;;;;;5.82;3.92;;;;;;;22.96;48.63;101499.34;10108982;28;20051;-69
2021/07/10 15:00:17;;;;;;;5.65;3.25;;;;;;;22.78;45.97;101486.00;10101208;28;20054;-70
2021/07/10 15:05:14;;;;;;;5.57;3.58;;;;;;;23.13;45.72;101490.34;10104849;28;20043;-70
2021/07/10 15:10:12;;;;;;;5.60;3.35;;;;;;;23.24;44.68;101482.88;10098618;28;20129;-71
2021/07/10 15:15:10;;;;;;;5.90;3.30;;;;;;;23.49;45.56;101476.69;10110177;28;20483;-70
2021/07/10 15:20:13;;;;;;;6.15;3.13;;;;;;;23.44;44.44;101475.06;10107577;28;20545;-71
2021/07/10 15:25:14;;;;;;;;;;;;;;;23.42;44.30;101473.84;10104542;28;20046;-70
2021/07/10 15:30:12;;;;;;;8.65;3.10;;;;;;;23.24;44.49;101474.50;10109200;28;19969;-70
2021/07/10 15:35:10;;;;;;;5.45;2.75;;;;;;;22.98;45.11;101483.03;10106460;28;20074;-70
2021/07/10 15:40:08;;;;;;;6.13;3.45;;;;;;;22.87;46.04;101471.75;10111356;28;20050;-70
2021/07/10 15:45:07;;;;;;;6.13;3.38;;;;;;;22.98;45.98;101469.06;10109163;28;20051;-70
2021/07/10 15:50:13;;;;;;;5.97;3.85;;;;;;;23.23;45.66;101461.75;10112645;28;20202;-71
2021/07/10 15:55:19;;;;;;;7.00;3.20;;;;;;;23.58;45.13;101460.38;10117203;28;20089;-71
2021/07/10 16:00:19;;;;;;;4.72;3.25;;;;;;;23.72;44.79;101452.09;10101906;28;20068;-71
2021/07/10 16:05:16;;;;;;;6.50;4.13;;;;;;;23.38;45.02;101457.06;10114636;28;20043;-69
2021/07/10 16:10:15;;;;;;;6.45;3.08;;;;;;;23.66;44.66;101450.06;10114237;28;20050;-70
2021/07/10 16:15:13;;;;;;;4.53;3.03;;;;;;;23.79;45.08;101454.16;10106238;28;20046;-69
2021/07/10 16:20:11;;;;;;;6.63;3.50;;;;;;;23.87;44.69;101452.19;10094895;28;20051;-70
2021/07/10 16:25:11;;;;;;;5.30;3.38;;;;;;;23.79;45.10;101453.34;10111794;28;20398;-70
2021/07/10 16:30:10;;;;;;;6.25;3.42;;;;;;;23.54;45.19;101448.41;10099905;28;20082;-70
2021/07/10 16:35:08;;;;;;;5.40;3.92;;;;;;;23.49;46.31;101445.97;10110007;28;20426;-69
2021/07/10 16:40:07;;;;;;;5.50;4.07;;;;;;;23.76;46.31;101443.75;10107989;28;20521;-69
2021/07/10 16:45:06;;;;;;;5.07;3.38;;;;;;;23.52;45.84;101450.78;10104411;28;20078;-71
2021/07/10 16:50:05;;;;;;;5.68;3.65;;;;;;;23.30;46.65;101450.63;10113831;28;20065;-71
2021/07/10 16:55:05;;;;;;;6.00;3.45;;;;;;;23.07;47.18;101452.84;10110292;28;20130;-71
2021/07/10 17:00:07;;;;;;;5.85;3.40;;;;;;;23.15;48.64;101460.06;10110048;28;22759;-69
2021/07/10 17:05:05;;;;;;;;;;;;;;;23.37;47.32;101449.06;10113377;28;20047;-69
2021/07/10 17:10:04;;;;;;;4.85;3.17;;;;;;;23.64;47.40;101446.84;10105389;28;19922;-69
2021/07/10 17:15:01;;;;;;;6.15;3.60;;;;;;;23.60;48.44;101446.03;10109366;28;20045;-71
2021/07/10 17:19:57;;;;;;;6.28;3.95;;;;;;;23.30;47.02;101452.59;10098068;28;20050;-70
2021/07/10 17:24:54;;;;;;;6.13;4.07;;;;;;;23.14;47.63;101458.47;10106524;28;20506;-70
2021/07/10 17:29:51;;;;;;;7.80;3.33;;;;;;;23.04;48.43;101464.75;10095961;28;20066;-69
2021/07/10 17:34:47;;;;;;;5.65;3.90;;;;;;;22.80;48.02;101461.34;10107547;28;20145;-69
2021/07/10 17:39:43;;;;;;;8.05;4.32;;;;;;;22.76;48.86;101459.69;10099386;28;20117;-71
2021/07/10 17:44:40;;;;;;;6.45;3.85;;;;;;;22.65;49.49;101459.59;10098226;28;20557;-69
2021/07/10 17:49:36;;;;;;;6.78;3.72;;;;;;;22.48;51.13;101466.59;10111042;28;20465;-69
2021/07/10 17:54:33;;;;;;;7.20;3.75;;;;;;;22.32;51.62;101464.00;10096432;28;20047;-69
2021/07/10 17:59:29;;;;;;;5.82;4.13;;;;;;;22.18;52.04;101470.19;10108620;28;20058;-69
2021/07/10 18:04:26;;;;;;;5.97;3.88;;;;;;;22.04;52.22;101481.94;10102146;28;20043;-69
2021/07/10 18:09:23;;;;;;;6.82;4.15;;;;;;;22.03;53.13;101474.00;10111956;28;20514;-71
2021/07/10 18:14:20;;;;;;;6.40;3.67;;;;;;;21.97;53.85;101476.28;10110142;28;20051;-70
2021/07/10 18:19:17;;;;;;;5.43;3.78;;;;;;;21.89;53.83;101479.38;10107067;28;20138;-69
2021/07/10 18:24:14;;;;;;;6.90;4.07;;;;;;;21.81;54.08;101487.59;10109296;28;20079;-69
2021/07/10 18:29:11;;;;;;;4.78;3.22;;;;;;;21.73;53.78;101483.13;10105941;28;20054;-69
2021/07/10 18:34:08;;;;;;;6.07;3.50;;;;;;;21.66;55.19;101482.22;10104108;28;20043;-69
2021/07/10 18:39:05;;;;;;;5.32;3.70;;;;;;;21.61;55.07;101486.94;10100649;28;20694;-69
2021/07/10 18:44:02;;;;;;;6.95;3.92;;;;;;;21.53;55.84;101485.22;10104652;28;20459;-70
2021/07/10 18:48:58;;;;;;;7.15;3.92;;;;;;;21.47;55.46;101491.47;10105544;28;20519;-69
2021/07/10 18:53:55;;;;;;;5.05;3.50;;;;;;;21.40;55.98;101497.75;10109862;28;20879;-69
2021/07/10 18:58:53;;;;;;;6.82;3.80;;;;;;;21.31;57.33;101502.72;10104812;28;20098;-70
2021/07/10 19:03:50;;;;;;;8.98;3.78;;;;;;;21.21;57.21;101510.53;10103864;28;20553;-69
2021/07/10 19:08:47;;;;;;;5.55;3.60;;;;;;;21.15;56.17;101509.22;10111391;28;20082;-69
2021/07/10 19:13:44;;;;;;;6.45;3.92;;;;;;;21.10;56.31;101501.19;10109895;28;21434;-68
2021/07/10 19:18:40;;;;;;;7.22;3.70;;;;;;;21.06;57.48;101505.88;10116492;28;20066;-69
2021/07/10 19:23:37;;;;;;;7.15;3.83;;;;;;;20.96;57.78;101500.94;10112805;28;20077;-70
2021/07/10 19:28:34;;;;;;;7.63;3.83;;;;;;;20.91;58.87;101509.56;10107520;28;20169;-69
2021/07/10 19:33:31;;;;;;;7.30;3.75;;;;;;;20.78;60.14;101506.97;10102150;28;20089;-71
2021/07/10 19:38:32;;;;;;;6.47;3.83;;;;;;;20.66;61.02;101515.47;10105269;28;20097;-69
2021/07/10 19:43:28;;;;;;;6.78;3.80;;;;;;;20.53;60.51;101516.78;10092752;28;20071;-70
2021/07/10 19:48:28;;;;;;;7.78;4.25;;;;;;;20.43;61.27;101523.72;10090099;28;20465;-69
2021/07/10 19:53:27;;;;;;;6.70;4.28;;;;;;;20.32;62.20;101529.06;10107330;28;20047;-69
2021/07/10 19:58:25;;;;;;;6.93;4.30;;;;;;;20.22;62.79;101520.50;10097823;28;20411;-70
2021/07/10 20:03:21;;;;;;;7.38;4.47;;;;;;;20.12;62.65;101525.47;10097757;28;20085;-67
2021/07/10 20:08:18;;;;;;;6.97;4.05;;;;;;;20.02;62.68;101517.69;10091211;28;20066;-68
2021/07/10 20:13:16;;;;;;;7.10;3.92;;;;;;;19.91;63.23;101524.97;10100839;28;20046;-68
2021/07/10 20:18:13;;;;;;;7.55;4.57;;;;;;;19.81;63.27;101520.81;10090883;28;20542;-67
2021/07/10 20:23:10;;;;;;;7.15;4.97;;;;;;;19.73;64.35;101532.91;10085161;28;20058;-68
2021/07/10 20:28:07;;;;;;;8.48;5.20;;;;;;;19.63;64.80;101530.66;10083627;28;20055;-67
2021/07/10 20:33:04;;;;;;;8.80;5.55;;;;;;;19.54;65.57;101534.44;10086160;28;20081;-67
2021/07/10 20:38:02;;;;;;;8.20;5.82;;;;;;;19.45;65.80;101530.25;10092261;28;20070;-67
2021/07/10 20:42:59;;;;;;;8.40;4.90;;;;;;;19.37;65.47;101545.06;10090588;28;20047;-67
2021/07/10 20:47:56;;;;;;;8.02;5.88;;;;;;;19.30;65.82;101532.63;10092753;28;20077;-67
2021/07/10 20:52:54;;;;;;;9.30;6.03;;;;;;;19.23;66.29;101534.44;10094536;28;20039;-68
2021/07/10 20:57:50;;;;;;;9.40;6.15;;;;;;;19.16;67.11;101535.03;10098411;28;20070;-70
2021/07/10 21:02:47;;;;;;;9.63;5.88;;;;;;;19.07;67.17;101537.19;10092758;28;20077;-70
2021/07/10 21:07:44;;;;;;;8.82;5.65;;;;;;;19.02;67.52;101541.03;10079401;28;20051;-70
2021/07/10 21:12:41;;;;;;;7.55;5.55;;;;;;;18.94;68.24;101539.25;10083016;28;20102;-70
2021/07/10 21:17:39;;;;;;;8.32;6.25;;;;;;;18.87;68.10;101544.59;10093109;28;20047;-72
2021/07/10 21:22:36;;;;;;;10.00;6.13;;;;;;;18.82;68.33;101544.81;10088450;28;20046;-71
2021/07/10 21:27:33;;;;;;;10.07;5.97;;;;;;;18.75;68.95;101552.91;10102876;28;20561;-69
2021/07/10 21:32:30;;;;;;;8.85;5.65;;;;;;;18.68;69.20;101557.13;10104926;28;20074;-69
2021/07/10 21:54:05;;;;;;;9.63;6.72;;;;;;;18.37;70.58;101556.97;10030405;26;20441;-69
2021/07/10 21:59:03;;;;;;;10.55;7.50;;;;;;;18.27;70.79;101561.84;10053975;28;20044;-69
2021/07/10 22:04:04;;;;;;;11.35;8.32;;;;;;;18.17;70.97;101562.34;10039918;28;20138;-70
2021/07/10 22:09:04;;;;;;;10.63;8.25;;;;;;;18.15;71.38;101570.19;10059286;28;20078;-70
2021/07/10 22:14:01;;;;;;;11.85;8.60;;;;;;;18.08;71.00;101572.75;10043958;28;20118;-67
2021/07/10 22:18:57;;;;;;;13.63;8.27;;;;;;;18.01;71.19;101575.25;10061154;28;20043;-67
2021/07/10 22:23:54;;;;;;;10.60;8.40;;;;;;;17.98;71.74;101570.44;10055188;28;20101;-67
2021/07/10 22:28:51;;;;;;;11.43;8.20;;;;;;;17.93;71.88;101576.22;10055259;28;20081;-67
2021/07/10 22:33:49;;;;;;;11.63;8.40;;;;;;;17.88;72.17;101577.25;10057787;28;20098;-67
2021/07/10 22:38:45;;;;;;;10.65;8.75;;;;;;;17.82;72.34;101579.47;10051912;28;20492;-67
2021/07/10 22:43:42;;;;;;;12.30;8.52;;;;;;;17.78;72.54;101578.50;10054260;28;20043;-69
2021/07/10 22:48:39;;;;;;;12.45;8.48;;;;;;;17.77;72.52;101570.53;10060313;28;20107;-69
2021/07/10 22:53:36;;;;;;;11.80;8.32;;;;;;;17.74;72.66;101577.56;10066690;28;20051;-68
2021/07/10 22:58:34;;;;;;;11.27;8.20;;;;;;;17.73;72.75;101578.72;10060560;28;20110;-70